sensor_id;sensor_type;location;lat;lon;timestamp;temperature;humidity
60469;DHT22;46316;47.582;10.238;2022-10-16T00:02:24;11.70;91.20
60469;DHT22;46316;47.582;10.238;2022-10-16T00:04:49;11.70;91.20
60469;DHT22;46316;47.582;10.238;2022-10-16T00:07:15;11.70;91.30
60469;DHT22;46316;47.582;10.238;2022-10-16T00:09:40;11.70;91.10
60469;DHT22;46316;47.582;10.238;2022-10-16T00:12:06;11.60;91.20
60469;DHT22;46316;47.582;10.238;2022-10-16T00:14:32;11.60;91.30
60469;DHT22;46316;47.582;10.238;2022-10-16T00:16:58;11.60;91.40
60469;DHT22;46316;47.582;10.238;2022-10-16T00:19:23;11.60;91.40
60469;DHT22;46316;47.582;10.238;2022-10-16T00:21:49;11.60;91.60
60469;DHT22;46316;47.582;10.238;2022-10-16T00:24:15;11.60;91.50
60469;DHT22;46316;47.582;10.238;2022-10-16T00:26:40;11.60;91.50
60469;DHT22;46316;47.582;10.238;2022-10-16T00:29:06;11.60;91.50
60469;DHT22;46316;47.582;10.238;2022-10-16T00:31:32;11.60;91.50
60469;DHT22;46316;47.582;10.238;2022-10-16T00:33:58;11.60;91.30
60469;DHT22;46316;47.582;10.238;2022-10-16T00:36:25;11.70;91.20
60469;DHT22;46316;47.582;10.238;2022-10-16T00:38:52;11.70;91.20
60469;DHT22;46316;47.582;10.238;2022-10-16T00:41:19;11.70;91.10
60469;DHT22;46316;47.582;10.238;2022-10-16T00:43:48;11.60;91.10
60469;DHT22;46316;47.582;10.238;2022-10-16T00:46:28;11.60;91.20
60469;DHT22;46316;47.582;10.238;2022-10-16T00:49:21;11.50;91.20
60469;DHT22;46316;47.582;10.238;2022-10-16T00:51:49;11.60;91.30
60469;DHT22;46316;47.582;10.238;2022-10-16T00:54:30;11.50;91.30
60469;DHT22;46316;47.582;10.238;2022-10-16T00:56:58;11.50;91.30
60469;DHT22;46316;47.582;10.238;2022-10-16T00:59:35;11.50;91.40
60469;DHT22;46316;47.582;10.238;2022-10-16T01:02:02;11.60;91.30
60469;DHT22;46316;47.582;10.238;2022-10-16T01:04:35;11.60;91.20
60469;DHT22;46316;47.582;10.238;2022-10-16T01:15:28;11.90;90.60
60469;DHT22;46316;47.582;10.238;2022-10-16T01:18:10;11.90;90.50
60469;DHT22;46316;47.582;10.238;2022-10-16T01:20:44;11.90;90.50
60469;DHT22;46316;47.582;10.238;2022-10-16T01:26:20;12.00;90.40
60469;DHT22;46316;47.582;10.238;2022-10-16T01:29:36;12.10;90.30
60469;DHT22;46316;47.582;10.238;2022-10-16T01:31:45;12.10;90.00
60469;DHT22;46316;47.582;10.238;2022-10-16T01:34:19;12.10;89.40
60469;DHT22;46316;47.582;10.238;2022-10-16T01:36:51;12.00;89.60
60469;DHT22;46316;47.582;10.238;2022-10-16T01:39:21;12.00;89.70
60469;DHT22;46316;47.582;10.238;2022-10-16T01:41:54;12.00;89.90
60469;DHT22;46316;47.582;10.238;2022-10-16T01:44:23;12.00;90.00
60469;DHT22;46316;47.582;10.238;2022-10-16T01:46:51;12.00;90.20
60469;DHT22;46316;47.582;10.238;2022-10-16T01:49:19;12.00;90.10
60469;DHT22;46316;47.582;10.238;2022-10-16T01:51:49;12.10;90.20
60469;DHT22;46316;47.582;10.238;2022-10-16T01:54:18;12.10;89.90
60469;DHT22;46316;47.582;10.238;2022-10-16T01:56:46;12.20;89.80
60469;DHT22;46316;47.582;10.238;2022-10-16T01:59:16;12.10;89.70
60469;DHT22;46316;47.582;10.238;2022-10-16T02:01:47;12.20;89.80
60469;DHT22;46316;47.582;10.238;2022-10-16T02:04:24;12.20;89.90
60469;DHT22;46316;47.582;10.238;2022-10-16T02:06:52;12.20;89.90
60469;DHT22;46316;47.582;10.238;2022-10-16T02:09:18;12.20;89.90
60469;DHT22;46316;47.582;10.238;2022-10-16T02:11:44;12.20;89.70
60469;DHT22;46316;47.582;10.238;2022-10-16T02:14:09;12.20;89.70
60469;DHT22;46316;47.582;10.238;2022-10-16T02:16:41;12.20;89.90
60469;DHT22;46316;47.582;10.238;2022-10-16T02:19:07;12.20;89.60
60469;DHT22;46316;47.582;10.238;2022-10-16T02:21:56;12.30;89.60
60469;DHT22;46316;47.582;10.238;2022-10-16T02:24:49;12.30;89.50
60469;DHT22;46316;47.582;10.238;2022-10-16T02:27:26;12.40;89.10
60469;DHT22;46316;47.582;10.238;2022-10-16T02:29:57;12.40;89.00
60469;DHT22;46316;47.582;10.238;2022-10-16T02:32:30;12.40;88.90
60469;DHT22;46316;47.582;10.238;2022-10-16T02:34:57;12.40;88.90
60469;DHT22;46316;47.582;10.238;2022-10-16T02:37:24;12.40;88.80
60469;DHT22;46316;47.582;10.238;2022-10-16T02:39:51;12.40;88.80
60469;DHT22;46316;47.582;10.238;2022-10-16T02:42:18;12.40;89.00
60469;DHT22;46316;47.582;10.238;2022-10-16T02:44:44;12.40;89.10
60469;DHT22;46316;47.582;10.238;2022-10-16T02:47:09;12.40;89.20
60469;DHT22;46316;47.582;10.238;2022-10-16T02:49:35;12.40;89.10
60469;DHT22;46316;47.582;10.238;2022-10-16T02:52:00;12.40;89.10
60469;DHT22;46316;47.582;10.238;2022-10-16T02:54:26;12.40;89.10
60469;DHT22;46316;47.582;10.238;2022-10-16T02:56:51;12.40;88.90
60469;DHT22;46316;47.582;10.238;2022-10-16T02:59:17;12.40;89.00
60469;DHT22;46316;47.582;10.238;2022-10-16T03:01:43;12.40;89.00
60469;DHT22;46316;47.582;10.238;2022-10-16T03:04:08;12.40;89.00
60469;DHT22;46316;47.582;10.238;2022-10-16T03:06:34;12.40;89.10
60469;DHT22;46316;47.582;10.238;2022-10-16T03:08:59;12.40;89.20
60469;DHT22;46316;47.582;10.238;2022-10-16T03:11:25;12.40;88.80
60469;DHT22;46316;47.582;10.238;2022-10-16T03:13:51;12.40;88.50
60469;DHT22;46316;47.582;10.238;2022-10-16T03:16:17;12.50;87.80
60469;DHT22;46316;47.582;10.238;2022-10-16T03:18:43;12.60;87.50
60469;DHT22;46316;47.582;10.238;2022-10-16T03:21:08;12.60;87.40
60469;DHT22;46316;47.582;10.238;2022-10-16T03:23:34;12.70;87.20
60469;DHT22;46316;47.582;10.238;2022-10-16T03:25:59;12.70;87.20
60469;DHT22;46316;47.582;10.238;2022-10-16T03:28:25;12.70;87.30
60469;DHT22;46316;47.582;10.238;2022-10-16T03:30:51;12.70;87.20
60469;DHT22;46316;47.582;10.238;2022-10-16T03:33:16;12.70;87.30
60469;DHT22;46316;47.582;10.238;2022-10-16T03:35:42;12.70;87.30
60469;DHT22;46316;47.582;10.238;2022-10-16T03:38:07;12.70;87.50
60469;DHT22;46316;47.582;10.238;2022-10-16T03:40:33;12.60;87.10
60469;DHT22;46316;47.582;10.238;2022-10-16T03:42:59;12.70;86.80
60469;DHT22;46316;47.582;10.238;2022-10-16T03:45:25;12.70;86.50
60469;DHT22;46316;47.582;10.238;2022-10-16T03:47:51;12.80;86.00
60469;DHT22;46316;47.582;10.238;2022-10-16T03:50:17;12.90;86.00
60469;DHT22;46316;47.582;10.238;2022-10-16T03:52:42;12.90;85.60
60469;DHT22;46316;47.582;10.238;2022-10-16T03:55:08;12.90;85.50
60469;DHT22;46316;47.582;10.238;2022-10-16T03:57:34;12.80;86.00
60469;DHT22;46316;47.582;10.238;2022-10-16T03:59:59;12.80;86.10
60469;DHT22;46316;47.582;10.238;2022-10-16T04:02:25;12.80;86.20
60469;DHT22;46316;47.582;10.238;2022-10-16T04:04:50;12.80;86.10
60469;DHT22;46316;47.582;10.238;2022-10-16T04:07:16;12.80;85.70
60469;DHT22;46316;47.582;10.238;2022-10-16T04:09:42;12.90;85.60
60469;DHT22;46316;47.582;10.238;2022-10-16T04:12:07;12.90;85.60
60469;DHT22;46316;47.582;10.238;2022-10-16T04:14:33;12.90;85.30
60469;DHT22;46316;47.582;10.238;2022-10-16T04:16:59;12.90;85.00
60469;DHT22;46316;47.582;10.238;2022-10-16T04:19:25;13.10;83.90
60469;DHT22;46316;47.582;10.238;2022-10-16T04:21:50;13.10;83.30
60469;DHT22;46316;47.582;10.238;2022-10-16T04:24:16;13.20;82.80
60469;DHT22;46316;47.582;10.238;2022-10-16T04:26:41;13.30;82.90
60469;DHT22;46316;47.582;10.238;2022-10-16T04:29:07;13.40;82.30
60469;DHT22;46316;47.582;10.238;2022-10-16T04:31:33;13.40;81.80
60469;DHT22;46316;47.582;10.238;2022-10-16T04:33:58;13.50;81.60
60469;DHT22;46316;47.582;10.238;2022-10-16T04:36:24;13.60;81.30
60469;DHT22;46316;47.582;10.238;2022-10-16T04:38:50;13.60;81.00
60469;DHT22;46316;47.582;10.238;2022-10-16T04:41:15;13.70;81.10
60469;DHT22;46316;47.582;10.238;2022-10-16T04:43:41;13.70;80.90
60469;DHT22;46316;47.582;10.238;2022-10-16T04:46:06;13.70;81.30
60469;DHT22;46316;47.582;10.238;2022-10-16T04:48:32;13.60;81.80
60469;DHT22;46316;47.582;10.238;2022-10-16T04:50:58;13.60;81.90
60469;DHT22;46316;47.582;10.238;2022-10-16T04:53:24;13.50;82.40
60469;DHT22;46316;47.582;10.238;2022-10-16T04:55:49;13.50;82.90
60469;DHT22;46316;47.582;10.238;2022-10-16T04:58:16;13.40;83.70
60469;DHT22;46316;47.582;10.238;2022-10-16T05:00:41;13.30;84.40
60469;DHT22;46316;47.582;10.238;2022-10-16T05:03:07;13.20;84.80
60469;DHT22;46316;47.582;10.238;2022-10-16T05:05:34;13.10;85.20
60469;DHT22;46316;47.582;10.238;2022-10-16T05:08:00;13.00;85.70
60469;DHT22;46316;47.582;10.238;2022-10-16T05:10:26;13.00;86.00
60469;DHT22;46316;47.582;10.238;2022-10-16T05:12:52;12.90;86.10
60469;DHT22;46316;47.582;10.238;2022-10-16T05:15:17;12.90;86.30
60469;DHT22;46316;47.582;10.238;2022-10-16T05:17:43;12.90;86.60
60469;DHT22;46316;47.582;10.238;2022-10-16T05:20:09;12.80;86.90
60469;DHT22;46316;47.582;10.238;2022-10-16T05:22:35;12.80;87.00
60469;DHT22;46316;47.582;10.238;2022-10-16T05:25:00;12.70;87.20
60469;DHT22;46316;47.582;10.238;2022-10-16T05:27:26;12.70;87.30
60469;DHT22;46316;47.582;10.238;2022-10-16T05:29:52;12.60;87.50
60469;DHT22;46316;47.582;10.238;2022-10-16T05:32:18;12.60;87.60
60469;DHT22;46316;47.582;10.238;2022-10-16T05:34:44;12.50;87.80
60469;DHT22;46316;47.582;10.238;2022-10-16T05:37:11;12.50;87.90
60469;DHT22;46316;47.582;10.238;2022-10-16T05:39:37;12.40;87.90
60469;DHT22;46316;47.582;10.238;2022-10-16T05:42:03;12.40;88.10
60469;DHT22;46316;47.582;10.238;2022-10-16T05:44:29;12.40;88.00
60469;DHT22;46316;47.582;10.238;2022-10-16T05:46:55;12.40;88.10
60469;DHT22;46316;47.582;10.238;2022-10-16T05:49:21;12.40;88.20
60469;DHT22;46316;47.582;10.238;2022-10-16T05:51:47;12.40;88.50
60469;DHT22;46316;47.582;10.238;2022-10-16T05:54:13;12.40;88.50
60469;DHT22;46316;47.582;10.238;2022-10-16T05:56:38;12.40;88.60
60469;DHT22;46316;47.582;10.238;2022-10-16T05:59:04;12.40;88.50
60469;DHT22;46316;47.582;10.238;2022-10-16T06:01:30;12.40;88.50
60469;DHT22;46316;47.582;10.238;2022-10-16T06:03:57;12.40;88.60
60469;DHT22;46316;47.582;10.238;2022-10-16T06:06:24;12.40;88.60
60469;DHT22;46316;47.582;10.238;2022-10-16T06:08:52;12.40;88.70
60469;DHT22;46316;47.582;10.238;2022-10-16T06:11:23;12.50;88.70
60469;DHT22;46316;47.582;10.238;2022-10-16T06:13:54;12.40;88.70
60469;DHT22;46316;47.582;10.238;2022-10-16T06:16:22;12.40;88.80
60469;DHT22;46316;47.582;10.238;2022-10-16T06:18:50;12.50;88.70
60469;DHT22;46316;47.582;10.238;2022-10-16T06:21:22;12.60;88.70
60469;DHT22;46316;47.582;10.238;2022-10-16T06:23:51;12.60;88.70
60469;DHT22;46316;47.582;10.238;2022-10-16T06:26:18;12.70;88.80
60469;DHT22;46316;47.582;10.238;2022-10-16T06:28:45;12.70;88.70
60469;DHT22;46316;47.582;10.238;2022-10-16T06:31:11;12.80;88.60
60469;DHT22;46316;47.582;10.238;2022-10-16T06:33:38;12.80;88.60
60469;DHT22;46316;47.582;10.238;2022-10-16T06:36:06;12.80;88.50
60469;DHT22;46316;47.582;10.238;2022-10-16T06:38:33;12.90;88.40
60469;DHT22;46316;47.582;10.238;2022-10-16T06:40:59;12.90;88.30
60469;DHT22;46316;47.582;10.238;2022-10-16T06:43:25;13.00;88.20
60469;DHT22;46316;47.582;10.238;2022-10-16T06:48:18;13.00;87.80
60469;DHT22;46316;47.582;10.238;2022-10-16T06:50:43;13.20;87.80
60469;DHT22;46316;47.582;10.238;2022-10-16T06:53:09;13.30;87.50
60469;DHT22;46316;47.582;10.238;2022-10-16T06:55:34;13.40;87.10
60469;DHT22;46316;47.582;10.238;2022-10-16T06:58:00;13.60;86.80
60469;DHT22;46316;47.582;10.238;2022-10-16T07:00:25;13.80;86.50
60469;DHT22;46316;47.582;10.238;2022-10-16T07:02:51;13.90;85.90
60469;DHT22;46316;47.582;10.238;2022-10-16T07:05:17;14.00;85.50
60469;DHT22;46316;47.582;10.238;2022-10-16T07:07:42;14.10;84.80
60469;DHT22;46316;47.582;10.238;2022-10-16T07:10:08;14.30;84.80
60469;DHT22;46316;47.582;10.238;2022-10-16T07:12:34;14.40;84.50
60469;DHT22;46316;47.582;10.238;2022-10-16T07:14:59;14.40;84.10
60469;DHT22;46316;47.582;10.238;2022-10-16T07:17:25;14.50;84.10
60469;DHT22;46316;47.582;10.238;2022-10-16T07:19:50;14.60;83.80
60469;DHT22;46316;47.582;10.238;2022-10-16T07:22:18;14.80;83.60
60469;DHT22;46316;47.582;10.238;2022-10-16T07:24:44;14.90;83.50
60469;DHT22;46316;47.582;10.238;2022-10-16T07:27:10;15.00;82.80
60469;DHT22;46316;47.582;10.238;2022-10-16T07:29:35;15.20;82.20
60469;DHT22;46316;47.582;10.238;2022-10-16T07:32:01;15.50;81.50
60469;DHT22;46316;47.582;10.238;2022-10-16T07:34:27;16.00;80.50
60469;DHT22;46316;47.582;10.238;2022-10-16T07:36:53;16.80;77.40
60469;DHT22;46316;47.582;10.238;2022-10-16T07:39:22;17.90;74.00
60469;DHT22;46316;47.582;10.238;2022-10-16T07:48:52;21.40;60.00
60469;DHT22;46316;47.582;10.238;2022-10-16T07:55:18;22.20;55.40
60469;DHT22;46316;47.582;10.238;2022-10-16T08:57:33;26.10;42.20
60469;DHT22;46316;47.582;10.238;2022-10-16T09:03:58;26.30;42.80
60469;DHT22;46316;47.582;10.238;2022-10-16T09:19:43;27.20;38.80
60469;DHT22;46316;47.582;10.238;2022-10-16T09:22:15;27.60;40.10
60469;DHT22;46316;47.582;10.238;2022-10-16T09:24:41;27.60;38.30
60469;DHT22;46316;47.582;10.238;2022-10-16T09:41:02;24.90;41.60
60469;DHT22;46316;47.582;10.238;2022-10-16T09:46:32;24.90;44.00
60469;DHT22;46316;47.582;10.238;2022-10-16T09:49:18;25.40;41.30
60469;DHT22;46316;47.582;10.238;2022-10-16T09:51:44;25.70;41.60
60469;DHT22;46316;47.582;10.238;2022-10-16T09:54:13;25.90;42.50
60469;DHT22;46316;47.582;10.238;2022-10-16T09:56:39;26.10;42.40
60469;DHT22;46316;47.582;10.238;2022-10-16T09:59:19;26.30;41.90
60469;DHT22;46316;47.582;10.238;2022-10-16T10:01:50;26.60;41.50
60469;DHT22;46316;47.582;10.238;2022-10-16T10:04:21;26.60;40.10
60469;DHT22;46316;47.582;10.238;2022-10-16T10:06:55;26.90;39.00
60469;DHT22;46316;47.582;10.238;2022-10-16T10:09:27;27.20;39.60
60469;DHT22;46316;47.582;10.238;2022-10-16T10:11:58;27.10;39.20
60469;DHT22;46316;47.582;10.238;2022-10-16T10:14:35;27.40;38.00
60469;DHT22;46316;47.582;10.238;2022-10-16T10:22:40;27.30;40.20
60469;DHT22;46316;47.582;10.238;2022-10-16T10:30:50;27.30;38.20
60469;DHT22;46316;47.582;10.238;2022-10-16T10:33:41;27.00;36.40
60469;DHT22;46316;47.582;10.238;2022-10-16T10:46:49;26.80;37.30
60469;DHT22;46316;47.582;10.238;2022-10-16T10:49:34;26.90;40.70
60469;DHT22;46316;47.582;10.238;2022-10-16T11:04:45;26.20;38.40
60469;DHT22;46316;47.582;10.238;2022-10-16T11:07:28;25.90;39.30
60469;DHT22;46316;47.582;10.238;2022-10-16T11:13:20;25.80;38.90
60469;DHT22;46316;47.582;10.238;2022-10-16T11:15:50;25.40;40.40
60469;DHT22;46316;47.582;10.238;2022-10-16T11:18:40;25.20;41.00
60469;DHT22;46316;47.582;10.238;2022-10-16T11:21:13;25.00;41.90
60469;DHT22;46316;47.582;10.238;2022-10-16T11:23:43;24.90;41.50
60469;DHT22;46316;47.582;10.238;2022-10-16T11:29:32;24.40;43.20
60469;DHT22;46316;47.582;10.238;2022-10-16T11:32:05;24.30;42.70
60469;DHT22;46316;47.582;10.238;2022-10-16T11:34:41;24.20;43.20
60469;DHT22;46316;47.582;10.238;2022-10-16T11:37:21;24.20;43.70
60469;DHT22;46316;47.582;10.238;2022-10-16T11:39:49;24.10;43.00
60469;DHT22;46316;47.582;10.238;2022-10-16T11:42:21;24.00;43.60
60469;DHT22;46316;47.582;10.238;2022-10-16T11:48:18;23.80;43.90
60469;DHT22;46316;47.582;10.238;2022-10-16T11:51:02;23.80;44.40
60469;DHT22;46316;47.582;10.238;2022-10-16T11:56:38;23.70;45.30
60469;DHT22;46316;47.582;10.238;2022-10-16T11:59:06;23.60;44.70
60469;DHT22;46316;47.582;10.238;2022-10-16T12:01:46;23.50;44.90
60469;DHT22;46316;47.582;10.238;2022-10-16T12:04:49;23.50;45.40
60469;DHT22;46316;47.582;10.238;2022-10-16T12:07:21;23.50;43.90
60469;DHT22;46316;47.582;10.238;2022-10-16T12:09:49;23.60;43.90
60469;DHT22;46316;47.582;10.238;2022-10-16T12:12:26;23.50;45.70
60469;DHT22;46316;47.582;10.238;2022-10-16T12:15:28;23.50;46.10
60469;DHT22;46316;47.582;10.238;2022-10-16T12:17:57;23.50;44.30
60469;DHT22;46316;47.582;10.238;2022-10-16T12:20:31;23.50;44.50
60469;DHT22;46316;47.582;10.238;2022-10-16T12:28:00;23.40;45.10
60469;DHT22;46316;47.582;10.238;2022-10-16T12:30:29;23.40;44.60
60469;DHT22;46316;47.582;10.238;2022-10-16T12:33:06;23.40;44.60
60469;DHT22;46316;47.582;10.238;2022-10-16T12:35:43;23.40;45.80
60469;DHT22;46316;47.582;10.238;2022-10-16T12:38:21;23.30;45.10
60469;DHT22;46316;47.582;10.238;2022-10-16T12:41:03;23.30;44.80
60469;DHT22;46316;47.582;10.238;2022-10-16T12:48:39;23.20;46.60
60469;DHT22;46316;47.582;10.238;2022-10-16T13:02:45;22.90;46.60
60469;DHT22;46316;47.582;10.238;2022-10-16T13:11:25;22.70;45.50
60469;DHT22;46316;47.582;10.238;2022-10-16T13:28:02;22.40;44.80
60469;DHT22;46316;47.582;10.238;2022-10-16T13:33:10;22.40;45.80
60469;DHT22;46316;47.582;10.238;2022-10-16T13:35:47;22.30;44.90
60469;DHT22;46316;47.582;10.238;2022-10-16T13:38:14;22.30;44.60
60469;DHT22;46316;47.582;10.238;2022-10-16T13:41:01;22.20;45.50
60469;DHT22;46316;47.582;10.238;2022-10-16T13:43:39;22.30;45.10
60469;DHT22;46316;47.582;10.238;2022-10-16T13:46:12;22.30;45.30
60469;DHT22;46316;47.582;10.238;2022-10-16T13:48:38;22.30;46.60
60469;DHT22;46316;47.582;10.238;2022-10-16T13:51:12;22.40;44.80
60469;DHT22;46316;47.582;10.238;2022-10-16T13:53:39;22.30;47.00
60469;DHT22;46316;47.582;10.238;2022-10-16T13:56:09;22.30;47.40
60469;DHT22;46316;47.582;10.238;2022-10-16T13:58:35;22.20;46.40
60469;DHT22;46316;47.582;10.238;2022-10-16T14:01:11;22.20;45.80
60469;DHT22;46316;47.582;10.238;2022-10-16T14:03:41;22.20;46.30
60469;DHT22;46316;47.582;10.238;2022-10-16T14:06:12;22.10;46.40
60469;DHT22;46316;47.582;10.238;2022-10-16T14:08:43;22.10;46.90
60469;DHT22;46316;47.582;10.238;2022-10-16T14:11:10;22.00;46.20
60469;DHT22;46316;47.582;10.238;2022-10-16T14:13:43;22.00;45.10
60469;DHT22;46316;47.582;10.238;2022-10-16T14:16:15;21.90;45.70
60469;DHT22;46316;47.582;10.238;2022-10-16T14:18:41;21.90;46.60
60469;DHT22;46316;47.582;10.238;2022-10-16T14:21:14;21.90;47.30
60469;DHT22;46316;47.582;10.238;2022-10-16T14:23:43;21.80;47.50
60469;DHT22;46316;47.582;10.238;2022-10-16T14:28:36;21.70;49.10
60469;DHT22;46316;47.582;10.238;2022-10-16T14:31:13;21.70;48.80
60469;DHT22;46316;47.582;10.238;2022-10-16T14:33:40;21.60;48.90
60469;DHT22;46316;47.582;10.238;2022-10-16T14:36:12;21.60;50.10
60469;DHT22;46316;47.582;10.238;2022-10-16T14:38:40;21.60;50.70
60469;DHT22;46316;47.582;10.238;2022-10-16T14:41:07;21.60;49.60
60469;DHT22;46316;47.582;10.238;2022-10-16T14:43:37;21.50;50.90
60469;DHT22;46316;47.582;10.238;2022-10-16T14:46:13;21.40;51.60
60469;DHT22;46316;47.582;10.238;2022-10-16T14:48:44;21.40;52.70
60469;DHT22;46316;47.582;10.238;2022-10-16T14:51:18;21.40;52.30
60469;DHT22;46316;47.582;10.238;2022-10-16T14:53:46;21.40;52.00
60469;DHT22;46316;47.582;10.238;2022-10-16T14:56:18;21.30;51.90
60469;DHT22;46316;47.582;10.238;2022-10-16T14:58:44;21.30;52.00
60469;DHT22;46316;47.582;10.238;2022-10-16T15:01:10;21.30;52.40
60469;DHT22;46316;47.582;10.238;2022-10-16T15:03:37;21.30;52.10
60469;DHT22;46316;47.582;10.238;2022-10-16T15:06:03;21.20;52.80
60469;DHT22;46316;47.582;10.238;2022-10-16T15:08:29;21.10;53.00
60469;DHT22;46316;47.582;10.238;2022-10-16T15:10:55;21.10;53.40
60469;DHT22;46316;47.582;10.238;2022-10-16T15:13:20;21.10;53.70
60469;DHT22;46316;47.582;10.238;2022-10-16T15:15:47;21.10;54.60
60469;DHT22;46316;47.582;10.238;2022-10-16T15:18:14;20.90;55.70
60469;DHT22;46316;47.582;10.238;2022-10-16T15:20:48;20.90;56.10
60469;DHT22;46316;47.582;10.238;2022-10-16T15:23:16;20.90;56.00
60469;DHT22;46316;47.582;10.238;2022-10-16T15:25:47;20.70;56.90
60469;DHT22;46316;47.582;10.238;2022-10-16T15:28:14;20.60;57.10
60469;DHT22;46316;47.582;10.238;2022-10-16T15:30:40;20.50;56.80
60469;DHT22;46316;47.582;10.238;2022-10-16T15:33:13;20.40;56.50
60469;DHT22;46316;47.582;10.238;2022-10-16T15:35:39;20.40;57.10
60469;DHT22;46316;47.582;10.238;2022-10-16T15:38:04;20.30;57.60
60469;DHT22;46316;47.582;10.238;2022-10-16T15:40:30;20.20;58.30
60469;DHT22;46316;47.582;10.238;2022-10-16T15:42:56;20.10;58.50
60469;DHT22;46316;47.582;10.238;2022-10-16T15:45:21;20.00;58.80
60469;DHT22;46316;47.582;10.238;2022-10-16T15:47:47;19.90;59.30
60469;DHT22;46316;47.582;10.238;2022-10-16T15:50:14;19.90;59.50
60469;DHT22;46316;47.582;10.238;2022-10-16T15:52:40;19.80;60.10
60469;DHT22;46316;47.582;10.238;2022-10-16T15:55:12;19.60;59.70
60469;DHT22;46316;47.582;10.238;2022-10-16T15:57:37;19.50;61.60
60469;DHT22;46316;47.582;10.238;2022-10-16T16:00:06;19.40;62.50
60469;DHT22;46316;47.582;10.238;2022-10-16T16:02:32;19.30;64.30
60469;DHT22;46316;47.582;10.238;2022-10-16T16:04:58;19.10;65.60
60469;DHT22;46316;47.582;10.238;2022-10-16T16:07:24;19.00;65.80
60469;DHT22;46316;47.582;10.238;2022-10-16T16:09:49;18.90;66.20
60469;DHT22;46316;47.582;10.238;2022-10-16T16:12:15;18.80;66.50
60469;DHT22;46316;47.582;10.238;2022-10-16T16:14:40;18.60;66.80
60469;DHT22;46316;47.582;10.238;2022-10-16T16:17:06;18.50;67.60
60469;DHT22;46316;47.582;10.238;2022-10-16T16:19:32;18.40;66.90
60469;DHT22;46316;47.582;10.238;2022-10-16T16:21:58;18.20;67.40
60469;DHT22;46316;47.582;10.238;2022-10-16T16:24:24;18.10;68.50
60469;DHT22;46316;47.582;10.238;2022-10-16T16:26:49;18.00;68.90
60469;DHT22;46316;47.582;10.238;2022-10-16T16:29:15;17.90;68.90
60469;DHT22;46316;47.582;10.238;2022-10-16T16:31:42;17.80;69.30
60469;DHT22;46316;47.582;10.238;2022-10-16T16:34:08;17.60;69.80
60469;DHT22;46316;47.582;10.238;2022-10-16T16:36:34;17.50;69.90
60469;DHT22;46316;47.582;10.238;2022-10-16T16:39:01;17.40;70.50
60469;DHT22;46316;47.582;10.238;2022-10-16T16:41:28;17.40;70.40
60469;DHT22;46316;47.582;10.238;2022-10-16T16:43:55;17.20;70.70
60469;DHT22;46316;47.582;10.238;2022-10-16T16:46:26;17.10;70.80
60469;DHT22;46316;47.582;10.238;2022-10-16T16:48:51;17.00;71.00
60469;DHT22;46316;47.582;10.238;2022-10-16T16:51:20;16.90;71.60
60469;DHT22;46316;47.582;10.238;2022-10-16T16:53:47;16.90;71.70
60469;DHT22;46316;47.582;10.238;2022-10-16T16:56:13;16.80;72.20
60469;DHT22;46316;47.582;10.238;2022-10-16T16:58:39;16.70;72.60
60469;DHT22;46316;47.582;10.238;2022-10-16T17:01:05;16.70;72.60
60469;DHT22;46316;47.582;10.238;2022-10-16T17:03:33;16.50;72.20
60469;DHT22;46316;47.582;10.238;2022-10-16T17:06:02;16.40;72.50
60469;DHT22;46316;47.582;10.238;2022-10-16T17:08:29;16.40;73.30
60469;DHT22;46316;47.582;10.238;2022-10-16T17:10:55;16.40;73.80
60469;DHT22;46316;47.582;10.238;2022-10-16T17:13:23;16.20;73.90
60469;DHT22;46316;47.582;10.238;2022-10-16T17:15:50;16.20;74.10
60469;DHT22;46316;47.582;10.238;2022-10-16T17:18:16;16.10;74.50
60469;DHT22;46316;47.582;10.238;2022-10-16T17:20:42;16.00;74.90
60469;DHT22;46316;47.582;10.238;2022-10-16T17:23:09;16.00;75.00
60469;DHT22;46316;47.582;10.238;2022-10-16T17:25:39;15.90;75.30
60469;DHT22;46316;47.582;10.238;2022-10-16T17:28:05;15.90;74.90
60469;DHT22;46316;47.582;10.238;2022-10-16T17:30:31;15.80;74.90
60469;DHT22;46316;47.582;10.238;2022-10-16T17:33:03;15.70;75.30
60469;DHT22;46316;47.582;10.238;2022-10-16T17:35:28;15.70;75.70
60469;DHT22;46316;47.582;10.238;2022-10-16T17:37:54;15.70;75.90
60469;DHT22;46316;47.582;10.238;2022-10-16T17:40:19;15.60;75.30
60469;DHT22;46316;47.582;10.238;2022-10-16T17:42:46;15.50;75.70
60469;DHT22;46316;47.582;10.238;2022-10-16T17:45:13;15.50;76.30
60469;DHT22;46316;47.582;10.238;2022-10-16T17:47:39;15.40;75.90
60469;DHT22;46316;47.582;10.238;2022-10-16T17:50:07;15.40;76.70
60469;DHT22;46316;47.582;10.238;2022-10-16T17:52:33;15.30;76.50
60469;DHT22;46316;47.582;10.238;2022-10-16T17:54:58;15.20;77.30
60469;DHT22;46316;47.582;10.238;2022-10-16T17:57:24;15.20;77.40
60469;DHT22;46316;47.582;10.238;2022-10-16T17:59:50;15.00;77.80
60469;DHT22;46316;47.582;10.238;2022-10-16T18:02:15;14.90;77.70
60469;DHT22;46316;47.582;10.238;2022-10-16T18:04:42;14.90;78.40
60469;DHT22;46316;47.582;10.238;2022-10-16T18:07:08;14.90;78.10
60469;DHT22;46316;47.582;10.238;2022-10-16T18:09:33;14.90;77.60
60469;DHT22;46316;47.582;10.238;2022-10-16T18:11:59;14.90;77.50
60469;DHT22;46316;47.582;10.238;2022-10-16T18:14:26;14.80;78.20
60469;DHT22;46316;47.582;10.238;2022-10-16T18:16:53;14.80;78.10
60469;DHT22;46316;47.582;10.238;2022-10-16T18:19:18;14.80;78.30
60469;DHT22;46316;47.582;10.238;2022-10-16T18:21:45;14.70;78.10
60469;DHT22;46316;47.582;10.238;2022-10-16T18:24:10;14.60;78.50
60469;DHT22;46316;47.582;10.238;2022-10-16T18:26:36;14.50;78.50
60469;DHT22;46316;47.582;10.238;2022-10-16T18:29:03;14.50;78.80
60469;DHT22;46316;47.582;10.238;2022-10-16T18:31:30;14.40;79.10
60469;DHT22;46316;47.582;10.238;2022-10-16T18:33:56;14.40;79.20
60469;DHT22;46316;47.582;10.238;2022-10-16T18:36:24;14.40;79.20
60469;DHT22;46316;47.582;10.238;2022-10-16T18:38:51;14.20;79.80
60469;DHT22;46316;47.582;10.238;2022-10-16T18:41:17;14.20;80.40
60469;DHT22;46316;47.582;10.238;2022-10-16T18:43:43;14.10;80.50
60469;DHT22;46316;47.582;10.238;2022-10-16T18:46:12;14.10;80.40
60469;DHT22;46316;47.582;10.238;2022-10-16T18:48:39;14.10;80.10
60469;DHT22;46316;47.582;10.238;2022-10-16T18:51:18;14.00;80.40
60469;DHT22;46316;47.582;10.238;2022-10-16T18:53:45;14.00;79.80
60469;DHT22;46316;47.582;10.238;2022-10-16T18:56:12;13.90;80.00
60469;DHT22;46316;47.582;10.238;2022-10-16T18:58:41;13.90;80.30